Time;durP1;ratioP1;P1;durP2;ratioP2;P2;SDS_P1;SDS_P2;PMS_P1;PMS_P2;Temp;Humidity;BMP_temperature;BMP_pressure;BME280_temperature;BME280_humidity;BME280_pressure;Samples;Min_cycle;Max_cycle;Signal;HPM_P1;HPM_P2
2023/05/11 00:00:45;;;;;;;23.10;18.05;;;;;;;;;;4958076;28;20026;-77
2023/05/11 00:03:11;;;;;;;29.58;19.40;;;;;;;;;;4954484;28;20058;-74
2023/05/11 00:05:36;;;;;;;25.45;19.05;;;;;;;;;;4957577;28;20070;-76
2023/05/11 00:08:01;;;;;;;27.83;20.38;;;;;;;;;;4957797;28;20047;-74
2023/05/11 00:10:27;;;;;;;24.25;17.35;;;;;;;;;;4958377;28;20427;-76
2023/05/11 00:12:53;;;;;;;17.83;14.02;;;;;;;;;;4947787;28;20035;-75
2023/05/11 00:15:18;;;;;;;18.58;13.18;;;;;;;;;;4956785;28;20086;-77
2023/05/11 00:17:44;;;;;;;14.18;12.07;;;;;;;;;;4957061;28;20029;-75
2023/05/11 00:20:09;;;;;;;14.50;12.13;;;;;;;;;;4960115;28;20023;-77
2023/05/11 00:22:35;;;;;;;16.17;11.93;;;;;;;;;;4958381;28;20480;-76
2023/05/11 00:25:00;;;;;;;12.50;9.93;;;;;;;;;;4957164;28;20027;-76
2023/05/11 00:27:25;;;;;;;12.57;10.07;;;;;;;;;;4958101;28;20117;-75
2023/05/11 00:29:51;;;;;;;15.05;8.73;;;;;;;;;;4959401;28;20027;-80
2023/05/11 00:32:16;;;;;;;13.25;9.25;;;;;;;;;;4955608;28;20028;-75
2023/05/11 00:34:41;;;;;;;10.23;8.80;;;;;;;;;;4972937;28;20034;-76
2023/05/11 00:37:07;;;;;;;17.48;14.57;;;;;;;;;;4956498;28;20027;-77
2023/05/11 00:39:38;;;;;;;22.38;14.30;;;;;;;;;;4960037;28;20026;-74
2023/05/11 00:42:04;;;;;;;18.48;14.07;;;;;;;;;;4959144;28;20062;-76
2023/05/11 00:44:29;;;;;;;18.17;13.38;;;;;;;;;;4960904;28;20084;-74
2023/05/11 00:46:55;;;;;;;14.10;12.15;;;;;;;;;;4959321;28;20460;-76
2023/05/11 00:49:21;;;;;;;14.68;12.32;;;;;;;;;;4957354;28;20042;-74
2023/05/11 00:51:47;;;;;;;13.93;11.52;;;;;;;;;;4957783;28;20046;-76
2023/05/11 00:54:14;;;;;;;16.00;10.45;;;;;;;;;;4959286;28;20339;-75
2023/05/11 00:56:40;;;;;;;12.30;9.80;;;;;;;;;;4959683;28;20422;-75
2023/05/11 00:59:05;;;;;;;9.85;8.35;;;;;;;;;;4958091;28;20165;-76
2023/05/11 01:01:30;;;;;;;9.18;8.23;;;;;;;;;;4956191;28;20201;-76
2023/05/11 01:03:56;;;;;;;10.70;9.60;;;;;;;;;;4956935;28;20458;-76
2023/05/11 01:06:31;;;;;;;9.63;8.23;;;;;;;;;;4957276;28;20031;-76
2023/05/11 01:09:11;;;;;;;9.85;7.90;;;;;;;;;;4955831;28;20078;-76
2023/05/11 01:11:40;;;;;;;9.38;8.32;;;;;;;;;;4955964;28;20066;-76
2023/05/11 01:14:11;;;;;;;10.88;8.57;;;;;;;;;;4956939;28;20034;-74
2023/05/11 01:16:39;;;;;;;8.70;7.80;;;;;;;;;;4955710;28;20064;-75
2023/05/11 01:19:10;;;;;;;9.82;7.78;;;;;;;;;;4958201;28;20062;-77
2023/05/11 01:21:35;;;;;;;9.27;7.63;;;;;;;;;;4957063;28;20069;-76
2023/05/11 01:24:20;;;;;;;9.70;8.35;;;;;;;;;;4948163;28;20430;-75
2023/05/11 01:26:48;;;;;;;7.85;7.05;;;;;;;;;;4954341;28;20356;-76
2023/05/11 01:29:32;;;;;;;6.70;6.07;;;;;;;;;;4958563;28;20035;-76
2023/05/11 01:31:58;;;;;;;7.45;6.45;;;;;;;;;;4954464;28;20109;-74
2023/05/11 01:34:25;;;;;;;11.15;9.30;;;;;;;;;;4956512;28;20034;-76
2023/05/11 01:36:58;;;;;;;17.48;14.32;;;;;;;;;;4951331;28;20564;-75
2023/05/11 01:39:27;;;;;;;19.63;15.98;;;;;;;;;;4951212;28;20027;-74
2023/05/11 01:41:54;;;;;;;16.00;13.83;;;;;;;;;;4956087;28;20053;-74
2023/05/11 01:44:21;;;;;;;17.40;13.38;;;;;;;;;;4947358;28;20256;-77
2023/05/11 01:46:47;;;;;;;28.58;19.60;;;;;;;;;;4955596;28;20043;-76
2023/05/11 01:49:13;;;;;;;22.98;17.08;;;;;;;;;;4954916;28;20045;-76
2023/05/11 01:51:39;;;;;;;13.38;10.90;;;;;;;;;;4957380;28;20046;-78
2023/05/11 01:54:08;;;;;;;12.35;10.90;;;;;;;;;;4958272;28;20443;-76
2023/05/11 01:56:35;;;;;;;11.32;9.60;;;;;;;;;;4956185;28;20027;-75
2023/05/11 01:59:01;;;;;;;9.98;8.70;;;;;;;;;;4955106;28;20251;-80
2023/05/11 02:01:28;;;;;;;10.75;7.93;;;;;;;;;;4955655;28;20027;-76
2023/05/11 02:03:54;;;;;;;9.02;8.07;;;;;;;;;;4958135;28;20142;-74
2023/05/11 02:06:20;;;;;;;11.02;9.63;;;;;;;;;;4957132;28;20102;-75
2023/05/11 02:08:47;;;;;;;10.80;9.65;;;;;;;;;;4954311;28;20541;-76
2023/05/11 02:11:12;;;;;;;9.45;8.38;;;;;;;;;;4956359;28;20439;-75
2023/05/11 02:13:40;;;;;;;8.90;8.00;;;;;;;;;;4955404;28;20034;-75
2023/05/11 02:16:07;;;;;;;7.63;6.88;;;;;;;;;;4958731;28;20035;-74
2023/05/11 02:18:33;;;;;;;6.32;5.60;;;;;;;;;;4954160;28;20094;-73
2023/05/11 02:20:59;;;;;;;6.65;6.05;;;;;;;;;;4954435;28;20462;-74
2023/05/11 02:23:25;;;;;;;10.60;8.55;;;;;;;;;;4948430;28;20039;-74
2023/05/11 02:25:54;;;;;;;14.98;11.55;;;;;;;;;;4952993;28;20435;-75
2023/05/11 02:28:19;;;;;;;13.97;10.53;;;;;;;;;;4956830;28;20034;-78
2023/05/11 02:30:45;;;;;;;11.05;7.95;;;;;;;;;;4956149;28;20046;-74
2023/05/11 02:33:13;;;;;;;11.07;9.55;;;;;;;;;;4959479;28;20030;-76
2023/05/11 02:35:41;;;;;;;13.02;10.68;;;;;;;;;;4953707;28;20029;-75
2023/05/11 02:38:08;;;;;;;9.00;7.82;;;;;;;;;;4956861;28;20043;-77
2023/05/11 02:40:38;;;;;;;15.50;12.52;;;;;;;;;;4956446;28;20501;-74
2023/05/11 02:43:08;;;;;;;12.88;9.52;;;;;;;;;;4955668;28;20031;-75
2023/05/11 02:45:34;;;;;;;9.98;8.70;;;;;;;;;;4948849;28;20085;-75
2023/05/11 02:48:02;;;;;;;10.02;8.85;;;;;;;;;;4956640;28;20358;-75
2023/05/11 02:50:29;;;;;;;9.48;8.48;;;;;;;;;;4954596;28;20027;-75
2023/05/11 02:52:56;;;;;;;8.00;7.20;;;;;;;;;;4956798;28;20091;-75
2023/05/11 02:55:21;;;;;;;7.82;7.10;;;;;;;;;;4946113;28;20105;-75
2023/05/11 02:57:47;;;;;;;8.52;7.00;;;;;;;;;;4941359;28;20452;-74
2023/05/11 03:00:13;;;;;;;9.20;6.60;;;;;;;;;;4953280;28;20050;-77
2023/05/11 03:02:38;;;;;;;8.00;7.00;;;;;;;;;;4955413;28;20035;-76
2023/05/11 03:05:04;;;;;;;7.47;6.50;;;;;;;;;;4948270;28;20359;-76
2023/05/11 03:07:30;;;;;;;8.63;6.80;;;;;;;;;;4950491;28;20047;-75
2023/05/11 03:09:56;;;;;;;7.85;6.38;;;;;;;;;;4955649;28;20034;-74
2023/05/11 03:12:21;;;;;;;9.55;6.72;;;;;;;;;;4954285;28;20090;-74
2023/05/11 03:14:47;;;;;;;8.52;6.70;;;;;;;;;;4954757;28;20105;-74
2023/05/11 03:17:13;;;;;;;6.97;6.38;;;;;;;;;;4953566;28;20035;-75
2023/05/11 03:19:40;;;;;;;8.45;7.25;;;;;;;;;;4938699;28;20097;-76
2023/05/11 03:22:06;;;;;;;9.73;8.73;;;;;;;;;;4937604;28;20035;-74
2023/05/11 03:24:32;;;;;;;9.98;8.82;;;;;;;;;;4938365;28;20034;-76
2023/05/11 03:26:58;;;;;;;9.23;8.30;;;;;;;;;;4937528;28;20458;-76
2023/05/11 03:29:24;;;;;;;9.13;7.20;;;;;;;;;;4936360;28;20518;-75
2023/05/11 03:31:50;;;;;;;8.68;6.15;;;;;;;;;;4939290;28;20057;-76
2023/05/11 03:34:15;;;;;;;7.00;6.40;;;;;;;;;;4947390;28;20054;-74
2023/05/11 03:36:41;;;;;;;6.80;6.20;;;;;;;;;;4954745;28;20042;-76
2023/05/11 03:39:08;;;;;;;9.05;6.80;;;;;;;;;;4951483;28;20027;-78
2023/05/11 03:41:34;;;;;;;7.70;6.88;;;;;;;;;;4949072;28;20097;-76
2023/05/11 03:43:59;;;;;;;8.57;6.50;;;;;;;;;;4948105;28;20518;-74
2023/05/11 03:46:25;;;;;;;8.88;6.88;;;;;;;;;;4952102;28;20035;-75
2023/05/11 03:48:51;;;;;;;8.23;7.00;;;;;;;;;;4952115;28;20050;-75
2023/05/11 03:51:17;;;;;;;7.63;6.90;;;;;;;;;;4952396;28;20350;-74
2023/05/11 03:53:42;;;;;;;8.52;7.50;;;;;;;;;;4957662;28;20316;-77
2023/05/11 03:56:08;;;;;;;9.35;8.25;;;;;;;;;;4953525;28;20031;-77
2023/05/11 03:58:37;;;;;;;11.23;9.98;;;;;;;;;;4954460;28;20031;-75
2023/05/11 04:01:02;;;;;;;30.03;20.00;;;;;;;;;;4950667;28;20030;-75
2023/05/11 04:03:28;;;;;;;33.05;25.30;;;;;;;;;;4943761;28;20266;-78
2023/05/11 04:05:53;;;;;;;342.20;259.40;;;;;;;;;;4944638;28;20086;-76
2023/05/11 04:08:18;;;;;;;43.28;36.97;;;;;;;;;;4943306;28;20073;-74
2023/05/11 04:10:44;;;;;;;16.85;15.05;;;;;;;;;;4951995;28;20034;-75
2023/05/11 04:13:09;;;;;;;13.95;12.60;;;;;;;;;;4953643;28;20481;-74
2023/05/11 04:15:36;;;;;;;13.85;11.80;;;;;;;;;;4953237;28;20019;-76
2023/05/11 04:18:01;;;;;;;11.05;9.80;;;;;;;;;;4952865;28;20062;-74
2023/05/11 04:20:27;;;;;;;12.98;11.05;;;;;;;;;;4953951;28;20050;-76
2023/05/11 04:22:52;;;;;;;13.07;10.73;;;;;;;;;;4954463;28;20102;-73
2023/05/11 04:25:18;;;;;;;12.43;10.13;;;;;;;;;;4952941;28;20034;-74
2023/05/11 04:27:43;;;;;;;11.43;10.32;;;;;;;;;;4954856;28;20040;-75
2023/05/11 04:30:08;;;;;;;11.18;10.02;;;;;;;;;;4951200;28;20107;-75
2023/05/11 04:32:34;;;;;;;11.40;10.18;;;;;;;;;;4953178;28;20063;-74
2023/05/11 04:34:59;;;;;;;14.13;11.50;;;;;;;;;;4953679;28;20027;-74
2023/05/11 04:37:25;;;;;;;18.98;16.73;;;;;;;;;;4953100;28;20063;-76
2023/05/11 04:39:50;;;;;;;23.50;21.15;;;;;;;;;;4951468;28;20027;-75
2023/05/11 04:42:15;;;;;;;16.02;14.43;;;;;;;;;;4947101;28;20055;-74
2023/05/11 04:44:41;;;;;;;13.05;11.25;;;;;;;;;;4952411;28;20031;-77
2023/05/11 04:47:06;;;;;;;11.55;10.30;;;;;;;;;;4956169;28;20054;-75
2023/05/11 04:49:31;;;;;;;10.82;9.82;;;;;;;;;;4956053;28;20041;-74
2023/05/11 04:51:57;;;;;;;12.35;11.02;;;;;;;;;;4959551;28;20114;-74
2023/05/11 04:54:22;;;;;;;13.32;11.50;;;;;;;;;;4957478;28;20101;-75
2023/05/11 04:56:48;;;;;;;11.05;10.00;;;;;;;;;;4956158;28;20030;-76
2023/05/11 04:59:13;;;;;;;17.25;15.57;;;;;;;;;;4959653;28;20031;-76
2023/05/11 05:01:38;;;;;;;16.13;14.60;;;;;;;;;;4951001;28;20035;-80
2023/05/11 05:04:04;;;;;;;11.60;10.43;;;;;;;;;;4940200;28;20029;-76
2023/05/11 05:06:30;;;;;;;14.43;12.57;;;;;;;;;;4941408;28;20063;-78
2023/05/11 05:08:56;;;;;;;15.20;13.48;;;;;;;;;;4936610;28;20157;-77
2023/05/11 05:11:23;;;;;;;15.63;12.57;;;;;;;;;;4941546;28;20117;-78
2023/05/11 05:13:48;;;;;;;18.48;15.10;;;;;;;;;;4947972;28;20038;-78
2023/05/11 05:16:13;;;;;;;20.02;16.23;;;;;;;;;;4951532;28;20027;-77
2023/05/11 05:18:39;;;;;;;18.20;14.00;;;;;;;;;;4945253;28;20042;-77
2023/05/11 05:21:04;;;;;;;18.58;16.15;;;;;;;;;;4950958;28;20019;-76
2023/05/11 05:23:30;;;;;;;17.95;15.50;;;;;;;;;;4949793;28;20031;-76
2023/05/11 05:25:55;;;;;;;27.40;16.45;;;;;;;;;;4955320;28;20026;-75
2023/05/11 05:28:21;;;;;;;13.38;12.05;;;;;;;;;;4953472;28;21105;-78
2023/05/11 05:30:46;;;;;;;13.95;12.60;;;;;;;;;;4954980;28;20037;-77
2023/05/11 05:33:12;;;;;;;16.15;12.98;;;;;;;;;;4957304;28;20034;-75
2023/05/11 05:35:37;;;;;;;14.07;12.52;;;;;;;;;;4947770;28;20042;-77
2023/05/11 05:38:02;;;;;;;13.95;12.48;;;;;;;;;;4956187;28;20053;-76
2023/05/11 05:40:28;;;;;;;30.08;17.35;;;;;;;;;;4958546;28;20034;-77
2023/05/11 05:42:53;;;;;;;23.08;19.48;;;;;;;;;;4947826;28;20042;-75
2023/05/11 05:45:19;;;;;;;21.58;18.95;;;;;;;;;;4959086;28;20035;-75
2023/05/11 05:47:44;;;;;;;17.30;15.00;;;;;;;;;;4947409;28;20039;-77
2023/05/11 05:50:10;;;;;;;30.48;23.52;;;;;;;;;;4950089;28;20104;-77
2023/05/11 05:52:35;;;;;;;26.60;22.23;;;;;;;;;;4942949;28;20033;-76
2023/05/11 05:55:01;;;;;;;17.48;15.45;;;;;;;;;;4938485;28;20383;-75
2023/05/11 05:57:29;;;;;;;17.95;15.98;;;;;;;;;;4954359;28;20049;-74
2023/05/11 05:59:54;;;;;;;15.65;14.00;;;;;;;;;;4949097;28;20030;-74
2023/05/11 06:02:20;;;;;;;14.32;12.35;;;;;;;;;;4952005;28;20031;-77
2023/05/11 06:04:46;;;;;;;13.32;11.95;;;;;;;;;;4950847;28;20406;-76
2023/05/11 06:07:13;;;;;;;14.73;11.88;;;;;;;;;;4944864;28;20049;-76
2023/05/11 06:09:38;;;;;;;13.18;11.77;;;;;;;;;;4947784;28;20088;-75
2023/05/11 06:12:04;;;;;;;17.67;15.77;;;;;;;;;;4953523;28;20035;-77
2023/05/11 06:14:30;;;;;;;19.48;17.42;;;;;;;;;;4945549;28;20027;-76
2023/05/11 06:16:56;;;;;;;20.15;16.17;;;;;;;;;;4953192;28;20050;-75
2023/05/11 06:19:21;;;;;;;17.17;13.75;;;;;;;;;;4954357;28;20031;-76
2023/05/11 06:21:47;;;;;;;16.33;14.45;;;;;;;;;;4954351;28;20042;-75
2023/05/11 06:24:13;;;;;;;13.73;12.23;;;;;;;;;;4952843;28;20518;-76
2023/05/11 06:26:39;;;;;;;13.57;10.55;;;;;;;;;;4943557;28;20246;-77
2023/05/11 06:29:05;;;;;;;14.70;13.18;;;;;;;;;;4940190;28;20107;-77
2023/05/11 06:31:30;;;;;;;21.05;17.02;;;;;;;;;;4947865;28;20105;-74
2023/05/11 06:33:55;;;;;;;15.75;13.23;;;;;;;;;;4946391;28;20438;-73
2023/05/11 06:36:21;;;;;;;17.30;12.57;;;;;;;;;;4953419;28;20953;-77
2023/05/11 06:38:46;;;;;;;17.20;15.40;;;;;;;;;;4956421;28;20042;-75
2023/05/11 06:41:12;;;;;;;14.68;13.18;;;;;;;;;;4953296;28;20062;-74
2023/05/11 06:43:37;;;;;;;14.82;13.25;;;;;;;;;;4955745;28;20118;-74
2023/05/11 06:46:03;;;;;;;17.10;14.38;;;;;;;;;;4955126;28;20035;-72
2023/05/11 06:48:28;;;;;;;14.65;12.77;;;;;;;;;;4954225;28;20358;-75
2023/05/11 06:50:54;;;;;;;15.25;12.32;;;;;;;;;;4952718;28;20033;-76
2023/05/11 06:53:19;;;;;;;12.30;11.10;;;;;;;;;;4943023;28;20030;-76
2023/05/11 06:55:45;;;;;;;14.15;10.95;;;;;;;;;;4953680;28;20030;-76
2023/05/11 06:58:10;;;;;;;11.38;10.10;;;;;;;;;;4944229;28;20039;-75
2023/05/11 07:00:36;;;;;;;10.85;9.50;;;;;;;;;;4943402;28;20054;-75
2023/05/11 07:03:01;;;;;;;22.23;17.80;;;;;;;;;;4953629;28;20419;-75
2023/05/11 07:05:26;;;;;;;12.07;10.32;;;;;;;;;;4956688;28;20039;-78
2023/05/11 07:07:52;;;;;;;19.48;15.63;;;;;;;;;;4953232;28;20042;-77
2023/05/11 07:10:17;;;;;;;16.75;15.00;;;;;;;;;;4955517;28;20415;-74
2023/05/11 07:12:42;;;;;;;15.65;13.77;;;;;;;;;;4955378;28;20352;-75
2023/05/11 07:15:08;;;;;;;14.63;13.13;;;;;;;;;;4952855;28;20027;-77
2023/05/11 07:17:33;;;;;;;24.67;22.00;;;;;;;;;;4947818;28;20057;-76
2023/05/11 07:19:59;;;;;;;16.20;14.45;;;;;;;;;;4945533;28;20105;-76
2023/05/11 07:22:24;;;;;;;11.15;10.05;;;;;;;;;;4940524;28;20023;-76
2023/05/11 07:24:49;;;;;;;10.80;9.38;;;;;;;;;;4941354;28;20037;-75
2023/05/11 07:27:15;;;;;;;12.00;10.63;;;;;;;;;;4943702;28;20109;-74
2023/05/11 07:29:40;;;;;;;15.85;11.15;;;;;;;;;;4966509;28;20098;-74
2023/05/11 07:32:06;;;;;;;10.07;8.82;;;;;;;;;;4954619;28;20035;-75
2023/05/11 07:34:31;;;;;;;10.43;9.32;;;;;;;;;;4958365;28;20037;-76
2023/05/11 07:36:56;;;;;;;13.18;11.07;;;;;;;;;;4952102;28;20038;-76
2023/05/11 07:39:22;;;;;;;21.15;15.60;;;;;;;;;;4946453;28;20030;-76
2023/05/11 07:41:47;;;;;;;14.10;10.57;;;;;;;;;;4942372;28;20055;-76
2023/05/11 07:44:13;;;;;;;13.45;11.43;;;;;;;;;;4941198;28;23345;-76
2023/05/11 07:46:38;;;;;;;15.77;12.52;;;;;;;;;;4942576;28;20030;-75
2023/05/11 07:49:04;;;;;;;12.88;11.40;;;;;;;;;;4953772;28;20101;-73
2023/05/11 07:51:29;;;;;;;9.93;8.90;;;;;;;;;;4953213;28;20043;-74
2023/05/11 07:53:55;;;;;;;14.25;11.18;;;;;;;;;;4953830;28;20046;-74
2023/05/11 07:56:20;;;;;;;12.25;9.23;;;;;;;;;;4967683;28;20085;-74
2023/05/11 07:58:45;;;;;;;11.80;10.43;;;;;;;;;;4954552;28;20044;-75
2023/05/11 08:01:11;;;;;;;11.18;9.95;;;;;;;;;;4944472;28;20054;-76
2023/05/11 08:03:36;;;;;;;10.30;8.48;;;;;;;;;;4944700;28;20023;-74
2023/05/11 08:06:02;;;;;;;19.00;16.08;;;;;;;;;;4953038;28;20097;-75
2023/05/11 08:08:28;;;;;;;22.55;18.58;;;;;;;;;;4956279;28;20034;-75
2023/05/11 08:10:54;;;;;;;15.82;12.20;;;;;;;;;;4949466;28;20046;-75
2023/05/11 08:13:20;;;;;;;11.00;9.35;;;;;;;;;;4954254;28;20359;-74
2023/05/11 08:15:45;;;;;;;15.60;8.73;;;;;;;;;;4952612;28;20382;-75
2023/05/11 08:18:10;;;;;;;8.88;7.93;;;;;;;;;;4958603;28;20122;-74
2023/05/11 08:20:36;;;;;;;10.82;8.45;;;;;;;;;;4954366;28;20042;-76
2023/05/11 08:23:01;;;;;;;11.02;8.30;;;;;;;;;;4960750;28;20038;-74
2023/05/11 08:25:27;;;;;;;19.10;15.00;;;;;;;;;;4958209;28;20035;-76
2023/05/11 08:27:52;;;;;;;21.38;17.30;;;;;;;;;;4957662;28;20046;-74
2023/05/11 08:30:18;;;;;;;17.95;12.68;;;;;;;;;;4957176;28;20078;-75
2023/05/11 08:32:43;;;;;;;15.55;9.13;;;;;;;;;;4958140;28;20033;-74
2023/05/11 08:35:08;;;;;;;9.90;8.88;;;;;;;;;;4959423;28;20080;-75
2023/05/11 08:37:34;;;;;;;11.07;9.25;;;;;;;;;;4958034;28;20067;-74
2023/05/11 08:39:59;;;;;;;17.08;14.23;;;;;;;;;;4956086;28;20113;-76
2023/05/11 08:42:25;;;;;;;14.73;12.00;;;;;;;;;;4955627;28;20965;-75
2023/05/11 08:44:54;;;;;;;14.82;12.10;;;;;;;;;;4958290;28;20058;-76
2023/05/11 08:47:19;;;;;;;18.55;14.05;;;;;;;;;;4948944;28;20031;-75
2023/05/11 08:49:44;;;;;;;13.63;10.45;;;;;;;;;;4955403;28;20736;-75
2023/05/11 08:52:11;;;;;;;13.25;9.93;;;;;;;;;;4957556;28;20129;-74
2023/05/11 08:54:37;;;;;;;9.77;7.97;;;;;;;;;;4958874;28;20488;-74
2023/05/11 08:57:02;;;;;;;9.23;7.75;;;;;;;;;;4959338;28;20039;-74
2023/05/11 08:59:28;;;;;;;14.25;7.85;;;;;;;;;;4962134;28;20027;-74
2023/05/11 09:01:54;;;;;;;13.48;11.52;;;;;;;;;;4957782;28;20105;-74
2023/05/11 09:04:21;;;;;;;9.75;7.38;;;;;;;;;;4959438;28;20026;-74
2023/05/11 09:06:48;;;;;;;6.68;6.00;;;;;;;;;;4956301;28;20229;-76
2023/05/11 09:09:13;;;;;;;11.82;10.07;;;;;;;;;;4955670;28;20366;-75
2023/05/11 09:11:39;;;;;;;17.02;14.57;;;;;;;;;;4952817;28;20031;-78
2023/05/11 09:14:04;;;;;;;14.95;8.48;;;;;;;;;;4957942;28;20085;-76
2023/05/11 09:16:29;;;;;;;6.50;5.90;;;;;;;;;;4958179;28;20027;-76
2023/05/11 09:18:57;;;;;;;12.48;10.40;;;;;;;;;;4957635;28;20030;-76
2023/05/11 09:21:23;;;;;;;10.15;8.00;;;;;;;;;;4960119;28;20465;-75
2023/05/11 09:23:49;;;;;;;11.07;9.07;;;;;;;;;;4956788;28;20031;-75
2023/05/11 09:26:15;;;;;;;11.40;9.85;;;;;;;;;;4957583;28;20169;-75
2023/05/11 09:28:51;;;;;;;38.25;22.30;;;;;;;;;;4956261;28;20034;-74
2023/05/11 09:31:36;;;;;;;68.50;35.17;;;;;;;;;;4954744;28;20481;-77
2023/05/11 09:34:09;;;;;;;13.27;8.85;;;;;;;;;;4951886;28;20458;-75
2023/05/11 09:36:34;;;;;;;8.63;7.63;;;;;;;;;;4948598;28;20039;-74
2023/05/11 09:39:02;;;;;;;35.63;25.30;;;;;;;;;;4949637;28;20350;-74
2023/05/11 09:41:29;;;;;;;16.33;11.43;;;;;;;;;;4940773;28;20058;-74
2023/05/11 09:44:02;;;;;;;9.25;7.82;;;;;;;;;;4961025;28;20038;-73
2023/05/11 09:46:28;;;;;;;8.27;6.95;;;;;;;;;;4956771;28;20027;-76
2023/05/11 09:48:59;;;;;;;7.93;7.13;;;;;;;;;;4958279;28;20098;-74
2023/05/11 09:51:30;;;;;;;8.98;7.88;;;;;;;;;;4955800;28;20444;-74
2023/05/11 09:53:56;;;;;;;9.45;7.72;;;;;;;;;;4956816;28;20110;-75
2023/05/11 09:56:22;;;;;;;20.75;12.77;;;;;;;;;;4959893;28;20123;-74
2023/05/11 09:58:49;;;;;;;10.98;8.95;;;;;;;;;;4956677;28;20109;-74
2023/05/11 10:01:15;;;;;;;17.60;13.48;;;;;;;;;;4955886;28;20078;-74
2023/05/11 10:03:52;;;;;;;8.43;7.53;;;;;;;;;;4949415;28;20039;-76
2023/05/11 10:06:18;;;;;;;7.03;6.32;;;;;;;;;;4950441;28;20023;-75
2023/05/11 10:08:43;;;;;;;7.40;6.70;;;;;;;;;;4958057;28;20039;-74
2023/05/11 10:11:09;;;;;;;9.50;7.85;;;;;;;;;;4959880;28;20097;-73
2023/05/11 10:13:35;;;;;;;6.53;5.90;;;;;;;;;;4958302;28;20443;-75
2023/05/11 10:16:03;;;;;;;6.28;5.38;;;;;;;;;;4953267;28;20070;-76
2023/05/11 10:18:28;;;;;;;8.27;5.80;;;;;;;;;;4955112;28;20173;-75
2023/05/11 10:20:54;;;;;;;7.25;5.72;;;;;;;;;;4948130;28;20113;-76
2023/05/11 10:23:20;;;;;;;7.88;6.50;;;;;;;;;;4956113;28;20769;-75
2023/05/11 10:25:46;;;;;;;6.53;5.93;;;;;;;;;;4957932;28;20033;-75
2023/05/11 10:28:12;;;;;;;7.45;5.72;;;;;;;;;;4956001;28;20035;-77
2023/05/11 10:30:37;;;;;;;8.30;5.93;;;;;;;;;;4958354;28;20042;-75
2023/05/11 10:33:05;;;;;;;8.15;6.32;;;;;;;;;;4946368;28;20318;-75
2023/05/11 10:35:30;;;;;;;6.82;6.18;;;;;;;;;;4955436;28;20050;-75
2023/05/11 10:37:57;;;;;;;6.72;5.80;;;;;;;;;;4941460;28;20034;-77
2023/05/11 10:40:22;;;;;;;7.03;6.32;;;;;;;;;;4947415;28;20081;-74
2023/05/11 10:42:50;;;;;;;7.80;6.05;;;;;;;;;;4967757;28;20035;-77
2023/05/11 10:45:28;;;;;;;6.82;6.22;;;;;;;;;;4956191;28;20031;-75
2023/05/11 10:47:57;;;;;;;6.70;5.90;;;;;;;;;;4953587;28;20027;-76
2023/05/11 10:50:31;;;;;;;8.73;6.25;;;;;;;;;;4954718;28;20077;-75
2023/05/11 10:53:16;;;;;;;18.15;11.38;;;;;;;;;;4948705;28;20142;-75
2023/05/11 10:55:47;;;;;;;10.90;7.88;;;;;;;;;;4956090;28;20439;-74
2023/05/11 10:58:26;;;;;;;7.25;6.55;;;;;;;;;;4954107;28;20475;-75
2023/05/11 11:00:51;;;;;;;9.17;7.77;;;;;;;;;;4953269;28;20027;-75
2023/05/11 11:03:17;;;;;;;13.40;11.02;;;;;;;;;;4954971;28;20038;-76
2023/05/11 11:05:45;;;;;;;9.50;7.50;;;;;;;;;;4954710;28;20150;-76
2023/05/11 11:08:10;;;;;;;10.05;9.05;;;;;;;;;;4955677;28;20038;-75
2023/05/11 11:10:37;;;;;;;14.80;11.13;;;;;;;;;;4955567;28;20031;-75
2023/05/11 11:13:02;;;;;;;9.48;8.32;;;;;;;;;;4953728;28;20089;-76
2023/05/11 11:15:46;;;;;;;12.25;8.35;;;;;;;;;;4955412;28;20027;-75
2023/05/11 11:18:22;;;;;;;8.95;7.57;;;;;;;;;;4954340;28;20031;-76
2023/05/11 11:20:48;;;;;;;20.75;15.40;;;;;;;;;;4955311;28;20518;-74
2023/05/11 11:23:31;;;;;;;13.63;10.02;;;;;;;;;;4957054;28;20039;-74
2023/05/11 11:25:57;;;;;;;13.75;10.48;;;;;;;;;;4954196;28;20347;-75
2023/05/11 11:28:23;;;;;;;11.00;8.98;;;;;;;;;;4955340;28;20094;-73
2023/05/11 11:31:08;;;;;;;21.48;17.02;;;;;;;;;;4955444;28;20031;-74
2023/05/11 11:33:34;;;;;;;7.10;6.50;;;;;;;;;;4954683;28;20034;-75
2023/05/11 11:36:00;;;;;;;14.80;11.32;;;;;;;;;;4941841;28;20048;-73
2023/05/11 11:38:26;;;;;;;16.27;12.75;;;;;;;;;;4943637;28;20035;-72
2023/05/11 11:40:51;;;;;;;67.70;56.28;;;;;;;;;;4950869;28;20059;-74
2023/05/11 11:43:19;;;;;;;23.23;19.25;;;;;;;;;;4943908;28;20037;-74
2023/05/11 11:46:00;;;;;;;20.52;15.57;;;;;;;;;;4946394;28;20039;-73
2023/05/11 11:48:34;;;;;;;18.00;14.38;;;;;;;;;;4950869;28;20455;-74
2023/05/11 11:51:07;;;;;;;12.88;11.48;;;;;;;;;;4952522;28;20034;-73
2023/05/11 11:53:35;;;;;;;12.20;10.70;;;;;;;;;;4945112;28;20033;-73
2023/05/11 11:56:01;;;;;;;11.67;10.17;;;;;;;;;;4951063;28;20118;-72
2023/05/11 11:58:42;;;;;;;20.33;14.18;;;;;;;;;;4948836;28;20713;-73
2023/05/11 12:01:08;;;;;;;16.10;13.18;;;;;;;;;;4944059;28;20037;-73
2023/05/11 12:03:37;;;;;;;10.88;9.48;;;;;;;;;;4950843;28;20107;-72
2023/05/11 12:06:04;;;;;;;15.30;9.32;;;;;;;;;;4946887;28;20042;-72
2023/05/11 12:08:32;;;;;;;10.82;8.63;;;;;;;;;;4945815;28;20054;-74
2023/05/11 12:10:58;;;;;;;9.85;8.75;;;;;;;;;;4948489;28;20109;-73
2023/05/11 12:13:23;;;;;;;13.73;11.10;;;;;;;;;;4948661;28;20098;-74
2023/05/11 12:15:49;;;;;;;13.68;9.98;;;;;;;;;;4947399;28;20023;-73
2023/05/11 12:18:21;;;;;;;11.45;9.95;;;;;;;;;;4946236;28;20035;-74
2023/05/11 12:20:47;;;;;;;10.02;8.60;;;;;;;;;;4947101;28;20054;-73
2023/05/11 12:23:13;;;;;;;8.70;7.78;;;;;;;;;;4946459;28;20070;-76
2023/05/11 12:25:38;;;;;;;46.88;30.77;;;;;;;;;;4946081;28;20046;-73
2023/05/11 12:28:03;;;;;;;34.42;22.58;;;;;;;;;;4947737;28;20077;-75
2023/05/11 12:30:30;;;;;;;15.48;11.40;;;;;;;;;;4962984;28;20023;-74
2023/05/11 12:32:55;;;;;;;12.68;10.82;;;;;;;;;;4957360;28;20031;-75
2023/05/11 12:35:24;;;;;;;26.00;18.52;;;;;;;;;;4957767;28;20077;-74
2023/05/11 12:37:50;;;;;;;15.30;9.60;;;;;;;;;;4960279;28;20124;-76
2023/05/11 12:40:15;;;;;;;13.10;7.70;;;;;;;;;;4954968;28;20046;-73
2023/05/11 12:42:50;;;;;;;9.80;7.10;;;;;;;;;;4948445;28;20118;-73
2023/05/11 12:45:16;;;;;;;12.32;9.52;;;;;;;;;;4948466;28;20023;-76
2023/05/11 12:47:42;;;;;;;11.35;8.90;;;;;;;;;;4945089;28;20048;-73
2023/05/11 12:50:08;;;;;;;32.35;21.38;;;;;;;;;;4946362;28;20478;-74
2023/05/11 12:52:33;;;;;;;23.95;16.48;;;;;;;;;;4946069;28;20035;-74
2023/05/11 12:54:59;;;;;;;35.60;21.88;;;;;;;;;;4946454;28;20386;-73
2023/05/11 12:57:26;;;;;;;23.23;16.33;;;;;;;;;;4945312;28;20034;-74
2023/05/11 13:00:24;;;;;;;24.38;16.92;;;;;;;;;;4953380;28;20342;-75
2023/05/11 13:02:50;;;;;;;73.90;46.08;;;;;;;;;;4907023;29;20063;-76
2023/05/11 13:05:18;;;;;;;19.92;14.30;;;;;;;;;;4906415;29;20020;-73
2023/05/11 13:07:43;;;;;;;19.90;14.27;;;;;;;;;;4906648;29;20035;-74
2023/05/11 13:10:10;;;;;;;27.05;17.70;;;;;;;;;;4907417;29;20044;-73
2023/05/11 13:12:46;;;;;;;12.43;10.20;;;;;;;;;;4906357;29;20036;-74
2023/05/11 13:15:11;;;;;;;16.10;11.18;;;;;;;;;;4909255;29;20452;-75
2023/05/11 13:17:38;;;;;;;22.35;15.02;;;;;;;;;;4895129;29;20083;-74
2023/05/11 13:20:15;;;;;;;22.77;18.13;;;;;;;;;;4907036;29;20134;-76
2023/05/11 13:22:41;;;;;;;32.33;21.77;;;;;;;;;;4905373;29;20028;-74
2023/05/11 13:25:08;;;;;;;26.15;18.27;;;;;;;;;;4906265;29;20036;-74
2023/05/11 13:27:33;;;;;;;44.92;32.85;;;;;;;;;;4905596;29;20166;-74
2023/05/11 13:29:58;;;;;;;35.72;26.73;;;;;;;;;;4906845;29;20123;-74
2023/05/11 13:32:24;;;;;;;34.78;24.95;;;;;;;;;;4908236;29;20055;-73
2023/05/11 13:34:49;;;;;;;34.25;26.50;;;;;;;;;;4905036;29;20652;-74
2023/05/11 13:37:14;;;;;;;34.15;22.83;;;;;;;;;;4894583;29;20089;-76
2023/05/11 13:39:40;;;;;;;24.58;18.67;;;;;;;;;;4959321;28;20031;-74
2023/05/11 13:42:05;;;;;;;18.45;16.02;;;;;;;;;;4956649;28;20515;-74
2023/05/11 13:44:30;;;;;;;24.20;17.88;;;;;;;;;;4957976;28;21179;-74
2023/05/11 13:46:57;;;;;;;22.23;18.17;;;;;;;;;;4955025;28;20027;-74
2023/05/11 13:49:22;;;;;;;23.83;18.08;;;;;;;;;;4952836;28;20097;-74
2023/05/11 13:51:47;;;;;;;77.57;55.20;;;;;;;;;;4946293;28;20058;-74
2023/05/11 13:54:13;;;;;;;36.25;25.40;;;;;;;;;;4950408;28;20059;-74
2023/05/11 13:56:38;;;;;;;14.20;11.85;;;;;;;;;;4953257;28;20023;-74
2023/05/11 13:59:03;;;;;;;25.05;19.30;;;;;;;;;;4943185;28;20027;-76
2023/05/11 14:01:29;;;;;;;29.45;22.73;;;;;;;;;;4946364;28;20093;-74
2023/05/11 14:03:55;;;;;;;17.95;13.23;;;;;;;;;;4943727;28;20394;-73
2023/05/11 14:06:22;;;;;;;14.05;12.48;;;;;;;;;;4957403;28;20486;-74
2023/05/11 14:08:47;;;;;;;20.67;16.02;;;;;;;;;;4956314;28;20034;-74
2023/05/11 14:11:13;;;;;;;18.27;15.48;;;;;;;;;;4954712;28;20034;-74
2023/05/11 14:13:38;;;;;;;22.05;17.30;;;;;;;;;;4955064;28;20055;-74
2023/05/11 14:16:04;;;;;;;19.90;16.70;;;;;;;;;;4956665;28;20088;-76
2023/05/11 14:18:29;;;;;;;18.58;15.77;;;;;;;;;;4956055;28;20407;-75
2023/05/11 14:20:55;;;;;;;24.35;18.10;;;;;;;;;;4958435;28;20042;-75
2023/05/11 14:23:21;;;;;;;21.50;17.48;;;;;;;;;;4955694;28;20035;-75